Terminal Aerodrome Forecast
Issued by NWS

Home | Current Version | Previous Version | Graphics & Text | Print | Product List | Glossary On
Versions: 1 2 3 4 5 6 7 8 9 10 11 12
000
FTUS43 KGRB 191732
TAFRHI
TAF
KRHI 191732Z 1918/2018 25009G16KT P6SM SKC
     FM192200 21006KT P6SM SKC
     FM200300 21006KT P6SM SKC WS020/23040KT
     FM201000 20006KT P6SM SKC
     FM201700 20009G15KT P6SM SKC=

USA.gov is the U.S. government's official web portal to all federal, state and local government web resources and services.